Time;durP1;ratioP1;P1;durP2;ratioP2;P2;SDS_P1;SDS_P2;PMS_P1;PMS_P2;Temp;Humidity;BMP_temperature;BMP_pressure;BME280_temperature;BME280_humidity;BME280_pressure;Samples;Min_cycle;Max_cycle;Signal;HPM_P1;HPM_P2
2022/04/06 00:01:30;;;;;;;9.13;2.78;;;;;;;9.31;82.12;100518.66;5095817;27;99099;-34
2022/04/06 00:03:55;;;;;;;7.25;2.00;;;;;;;9.38;82.18;100531.78;5095901;27;96596;-34
2022/04/06 00:06:21;;;;;;;6.03;1.95;;;;;;;9.33;82.29;100521.25;5095548;27;118587;-34
2022/04/06 00:08:46;;;;;;;3.58;1.67;;;;;;;9.31;82.55;100505.13;5095826;27;99042;-34
2022/04/06 00:11:11;;;;;;;4.18;1.60;;;;;;;9.35;82.47;100511.22;5094503;27;125903;-34
2022/04/06 00:13:37;;;;;;;5.32;1.90;;;;;;;9.38;82.20;100523.69;5094812;27;116618;-34
2022/04/06 00:16:02;;;;;;;5.63;1.52;;;;;;;9.40;82.47;100525.31;5095516;27;110744;-34
2022/04/06 00:18:27;;;;;;;7.47;1.58;;;;;;;9.34;82.18;100507.66;5077280;27;98894;-34
2022/04/06 00:20:52;;;;;;;4.35;1.95;;;;;;;9.31;82.12;100499.72;5095056;27;117664;-34
2022/04/06 00:23:18;;;;;;;1.65;1.08;;;;;;;9.40;82.29;100508.25;5095412;27;106112;-34
2022/04/06 00:25:43;;;;;;;5.10;1.63;;;;;;;9.37;81.92;100503.91;5095387;27;96954;-34
2022/04/06 00:28:08;;;;;;;9.32;1.38;;;;;;;9.36;82.44;100492.19;5095429;27;99720;-34
2022/04/06 00:30:34;;;;;;;10.82;1.63;;;;;;;9.42;82.00;100500.91;5095920;27;99871;-34
2022/04/06 00:32:59;;;;;;;5.60;1.35;;;;;;;9.42;81.88;100498.22;5095349;27;96531;-34
2022/04/06 00:35:32;;;;;;;8.65;2.20;;;;;;;9.47;81.49;100509.59;5095793;27;96656;-34
2022/04/06 00:38:05;;;;;;;8.32;1.73;;;;;;;9.41;81.41;100500.03;5076259;27;100903;-34
2022/04/06 00:40:35;;;;;;;5.15;2.00;;;;;;;9.43;81.20;100495.38;5095024;27;99944;-34
2022/04/06 00:43:05;;;;;;;2.17;1.05;;;;;;;9.41;81.41;100491.06;5076769;27;96654;-34
2022/04/06 00:45:30;;;;;;;1.58;0.93;;;;;;;9.44;81.20;100490.84;5076919;27;96785;-34
2022/04/06 00:47:55;;;;;;;1.38;0.85;;;;;;;9.44;81.28;100490.84;5094127;27;97872;-34
2022/04/06 00:50:21;;;;;;;4.70;1.48;;;;;;;9.42;81.20;100488.25;5094504;27;120793;-34
2022/04/06 00:52:48;;;;;;;3.63;1.05;;;;;;;9.38;81.09;100480.44;5076380;27;96629;-34
2022/04/06 00:55:15;;;;;;;3.30;1.42;;;;;;;9.38;81.26;100475.91;5095523;27;96731;-34
2022/04/06 00:57:40;;;;;;;6.95;1.15;;;;;;;9.33;81.14;100468.06;5076421;27;101252;-34
2022/04/06 01:00:10;;;;;;;5.88;1.02;;;;;;;9.34;81.23;100466.22;5094923;27;99487;-34
2022/04/06 01:02:35;;;;;;;1.95;0.98;;;;;;;9.31;81.34;100464.59;5075902;27;97135;-34
2022/04/06 01:05:01;;;;;;;9.10;1.80;;;;;;;9.29;81.09;100469.22;5094674;27;96843;-34
2022/04/06 01:07:26;;;;;;;6.22;1.58;;;;;;;9.29;81.47;100461.13;5094492;27;115064;-34
2022/04/06 01:09:52;;;;;;;9.77;2.05;;;;;;;9.33;81.10;100472.63;5095068;27;97761;-34
2022/04/06 01:12:19;;;;;;;4.00;1.08;;;;;;;9.31;81.40;100466.44;5094407;27;100167;-34
2022/04/06 01:14:45;;;;;;;5.95;1.08;;;;;;;9.28;81.12;100453.97;5076282;27;96787;-34
2022/04/06 01:17:10;;;;;;;7.30;1.88;;;;;;;9.32;81.08;100465.47;5094760;27;102419;-34
2022/04/06 01:19:51;;;;;;;7.32;1.60;;;;;;;9.28;81.14;100459.38;5095173;27;97751;-34
2022/04/06 01:22:18;;;;;;;2.67;1.20;;;;;;;9.32;81.23;100457.38;5094977;27;96561;-34
2022/04/06 01:24:45;;;;;;;12.70;1.70;;;;;;;9.26;81.05;100453.19;5076151;27;96819;-34
2022/04/06 01:27:11;;;;;;;13.55;1.45;;;;;;;9.28;81.13;100453.13;5093832;27;99665;-34
2022/04/06 01:29:37;;;;;;;2.42;0.85;;;;;;;9.23;81.00;100448.00;5094773;27;97348;-34
2022/04/06 01:32:20;;;;;;;1.88;0.95;;;;;;;9.27;81.00;100457.66;5094573;27;96537;-34
2022/04/06 01:34:46;;;;;;;10.65;1.50;;;;;;;9.23;80.79;100456.09;5094650;27;96731;-34
2022/04/06 01:37:13;;;;;;;2.20;1.05;;;;;;;9.20;80.86;100459.00;5094611;27;97564;-34
2022/04/06 01:39:41;;;;;;;5.22;0.80;;;;;;;9.24;80.59;100460.53;5075668;27;100864;-34
2022/04/06 01:42:10;;;;;;;8.63;2.47;;;;;;;9.18;80.23;100447.44;5075878;27;96694;-34
2022/04/06 01:44:36;;;;;;;9.10;1.27;;;;;;;9.20;80.15;100445.50;5094645;27;96737;-34
2022/04/06 01:47:05;;;;;;;4.03;1.00;;;;;;;9.17;80.00;100445.66;5075705;27;100814;-34
2022/04/06 01:52:15;;;;;;;2.33;0.77;;;;;;;9.12;79.90;100436.97;5094031;27;96681;-34
2022/04/06 01:54:45;;;;;;;1.35;0.75;;;;;;;9.20;80.30;100450.91;5075642;27;97154;-34
2022/04/06 01:57:11;;;;;;;7.00;0.82;;;;;;;9.16;79.80;100448.47;5075614;27;100905;-34
2022/04/06 01:59:36;;;;;;;7.35;0.90;;;;;;;9.07;79.73;100439.09;5093207;27;99338;-34
2022/04/06 02:02:04;;;;;;;4.60;0.70;;;;;;;9.12;79.74;100448.66;5094188;27;96725;-34
2022/04/06 02:04:30;;;;;;;0.85;0.50;;;;;;;9.14;79.64;100446.72;5075295;27;96962;-34
2022/04/06 02:06:55;;;;;;;8.18;2.15;;;;;;;9.17;79.39;100451.06;5093759;27;99356;-34
2022/04/06 02:09:20;;;;;;;0.65;0.52;;;;;;;9.11;79.35;100446.06;5094213;27;99406;-34
2022/04/06 02:11:47;;;;;;;3.40;1.13;;;;;;;9.13;79.28;100450.41;5092221;27;124347;-34
2022/04/06 02:14:13;;;;;;;0.30;0.30;;;;;;;9.10;79.23;100436.19;5075299;27;96818;-34
2022/04/06 02:16:38;;;;;;;5.05;1.15;;;;;;;9.09;79.25;100434.47;5093035;27;99532;-34
2022/04/06 02:19:07;;;;;;;5.07;0.65;;;;;;;9.03;79.26;100432.16;5075187;27;100713;-34
2022/04/06 02:21:33;;;;;;;9.10;1.95;;;;;;;9.03;78.85;100427.59;5075321;27;96674;-34
2022/04/06 02:23:58;;;;;;;2.25;0.80;;;;;;;9.08;78.57;100443.53;5094051;27;96756;-34
2022/04/06 02:26:24;;;;;;;5.38;1.17;;;;;;;9.07;78.57;100434.56;5093722;27;97348;-35
2022/04/06 02:28:49;;;;;;;2.72;1.13;;;;;;;9.04;78.49;100428.50;5093415;27;99421;-34
2022/04/06 02:31:15;;;;;;;6.65;1.33;;;;;;;8.99;78.39;100420.69;5093073;27;119151;-34
2022/04/06 02:33:40;;;;;;;1.80;0.85;;;;;;;8.98;78.40;100421.63;5094127;27;96578;-34
2022/04/06 02:36:06;;;;;;;1.30;0.60;;;;;;;9.02;78.11;100419.63;5093448;27;99214;-34
2022/04/06 02:38:32;;;;;;;2.35;0.55;;;;;;;8.96;78.12;100415.44;5093576;27;97348;-34
2022/04/06 02:40:57;;;;;;;6.35;0.47;;;;;;;8.95;77.22;100415.56;5092997;27;96624;-34
2022/04/06 02:43:22;;;;;;;1.73;0.70;;;;;;;8.89;77.46;100408.69;5093079;27;108257;-34
2022/04/06 02:45:48;;;;;;;3.47;0.75;;;;;;;8.86;77.41;100401.63;5093189;27;98711;-34
2022/04/06 02:48:16;;;;;;;2.58;0.90;;;;;;;8.84;77.50;100406.28;5093392;27;97798;-34
2022/04/06 02:50:41;;;;;;;4.82;0.73;;;;;;;8.79;77.20;100399.41;5074830;27;96505;-34
2022/04/06 02:53:07;;;;;;;2.67;1.15;;;;;;;8.80;76.72;100404.72;5093279;27;96835;-34
2022/04/06 02:55:32;;;;;;;1.15;0.82;;;;;;;8.72;76.92;100390.81;5093482;27;97964;-34
2022/04/06 02:57:57;;;;;;;1.58;0.70;;;;;;;8.72;77.20;100390.81;5092520;27;126489;-34
2022/04/06 03:00:22;;;;;;;0.82;0.15;;;;;;;8.69;77.18;100388.31;5093536;27;96695;-34
2022/04/06 03:02:48;;;;;;;1.55;0.75;;;;;;;8.72;77.33;100393.53;5092488;27;118579;-34
2022/04/06 03:05:13;;;;;;;1.27;0.60;;;;;;;8.65;77.39;100384.94;5092537;27;97998;-34
2022/04/06 03:07:39;;;;;;;2.78;0.52;;;;;;;8.64;77.08;100375.09;5092257;27;124014;-34
2022/04/06 03:10:05;;;;;;;3.78;0.22;;;;;;;8.64;77.10;100383.19;5074951;27;96629;-34
2022/04/06 03:12:30;;;;;;;0.35;0.25;;;;;;;8.62;77.00;100376.16;5096004;27;97822;-34
2022/04/06 03:14:56;;;;;;;0.80;0.60;;;;;;;8.63;76.91;100377.91;5096855;27;97469;-34
2022/04/06 03:17:21;;;;;;;0.47;0.32;;;;;;;8.60;76.96;100380.78;5095858;27;126491;-34
2022/04/06 03:19:46;;;;;;;2.05;0.70;;;;;;;8.62;76.78;100379.72;5096050;27;122446;-34
2022/04/06 03:22:17;;;;;;;0.35;0.32;;;;;;;8.64;77.21;100382.34;5097348;27;96772;-34
2022/04/06 03:24:44;;;;;;;0.25;0.25;;;;;;;8.59;77.24;100374.50;5077768;27;101447;-34
2022/04/06 03:27:09;;;;;;;1.67;0.17;;;;;;;8.60;77.23;100367.28;5077891;27;100805;-34
2022/04/06 03:29:34;;;;;;;2.17;0.90;;;;;;;8.67;77.68;100376.72;5096337;27;96426;-34
2022/04/06 03:32:00;;;;;;;1.13;0.52;;;;;;;8.68;77.28;100368.56;5096646;27;96555;-34
2022/04/06 03:34:25;;;;;;;5.03;0.43;;;;;;;8.66;77.41;100356.97;5096539;27;98078;-34
2022/04/06 03:36:50;;;;;;;6.10;1.05;;;;;;;8.71;77.37;100373.75;5095149;27;126831;-34
2022/04/06 03:39:16;;;;;;;2.20;0.43;;;;;;;8.67;77.22;100358.69;5095467;27;124464;-34
2022/04/06 03:41:41;;;;;;;1.08;0.35;;;;;;;8.72;77.30;100366.50;5096477;27;96778;-34
2022/04/06 03:44:06;;;;;;;12.05;0.63;;;;;;;8.68;77.53;100354.19;5095129;27;128065;-34
2022/04/06 03:46:31;;;;;;;2.13;0.57;;;;;;;8.73;77.66;100364.72;5096244;27;107677;-34
2022/04/06 03:48:57;;;;;;;1.30;0.73;;;;;;;8.69;77.68;100343.28;5096232;27;96767;-34
2022/04/06 03:51:22;;;;;;;1.17;0.43;;;;;;;8.77;77.91;100353.63;5096392;27;96564;-34
2022/04/06 03:53:48;;;;;;;6.95;1.48;;;;;;;8.74;77.90;100348.41;5095295;27;99285;-34
2022/04/06 03:56:13;;;;;;;1.15;0.30;;;;;;;8.75;77.81;100336.66;5095604;27;102928;-34
2022/04/06 03:58:38;;;;;;;4.63;0.60;;;;;;;8.80;78.11;100342.63;5096247;27;96693;-34
2022/04/06 04:01:05;;;;;;;2.25;0.70;;;;;;;8.81;77.94;100336.25;5096091;27;97631;-34
2022/04/06 04:03:30;;;;;;;2.28;1.08;;;;;;;8.78;78.01;100336.44;5096049;27;98071;-34
2022/04/06 04:05:55;;;;;;;0.70;0.55;;;;;;;8.77;78.07;100337.44;5095624;27;100447;-34
2022/04/06 04:08:22;;;;;;;13.00;1.27;;;;;;;8.72;77.72;100323.31;5094842;27;123774;-34
2022/04/06 04:10:47;;;;;;;3.38;0.65;;;;;;;8.76;77.71;100335.66;5096284;27;97038;-34
2022/04/06 04:13:12;;;;;;;3.30;0.75;;;;;;;8.78;77.56;100328.34;5095446;27;98006;-34
2022/04/06 04:15:38;;;;;;;2.45;0.75;;;;;;;8.76;77.48;100316.75;5095147;27;115452;-34
2022/04/06 04:18:03;;;;;;;2.00;0.80;;;;;;;8.76;77.47;100321.31;5095574;27;96678;-34
2022/04/06 04:20:45;;;;;;;2.55;0.63;;;;;;;8.80;77.27;100330.97;5095872;27;96885;-34
2022/04/06 04:23:14;;;;;;;5.13;1.30;;;;;;;8.82;77.26;100332.59;5095169;27;100088;-34
2022/04/06 04:25:40;;;;;;;6.50;1.00;;;;;;;8.82;77.13;100321.78;5095537;27;97408;-34
2022/04/06 04:28:06;;;;;;;0.47;0.32;;;;;;;8.83;77.35;100318.13;5077116;27;96567;-34
2022/04/06 04:30:33;;;;;;;2.28;0.80;;;;;;;8.74;77.39;100296.22;5077165;27;96817;-34
2022/04/06 04:32:58;;;;;;;7.60;0.52;;;;;;;8.84;77.41;100319.88;5076715;27;101046;-34
2022/04/06 04:35:23;;;;;;;5.47;0.75;;;;;;;8.81;77.31;100309.25;5094888;27;121377;-34
2022/04/06 04:37:49;;;;;;;1.33;0.50;;;;;;;8.82;77.48;100305.59;5095657;27;96475;-34
2022/04/06 04:40:20;;;;;;;4.57;0.80;;;;;;;8.71;77.39;100292.75;5095660;27;96922;-34
2022/04/06 04:42:46;;;;;;;4.67;0.83;;;;;;;8.78;77.46;100301.34;5094770;27;99335;-34
2022/04/06 04:45:11;;;;;;;1.63;0.68;;;;;;;8.72;77.77;100285.50;5095330;27;97853;-34
2022/04/06 04:47:37;;;;;;;3.03;0.90;;;;;;;8.81;77.67;100301.13;5095250;27;96548;-34
2022/04/06 04:50:04;;;;;;;6.85;1.20;;;;;;;8.79;77.83;100289.56;5076930;27;96784;-34
2022/04/06 04:52:30;;;;;;;6.22;0.85;;;;;;;8.81;77.56;100298.44;5059104;27;100872;-34
2022/04/06 04:54:55;;;;;;;1.63;0.75;;;;;;;8.78;77.88;100295.94;5095232;27;97253;-34
2022/04/06 04:57:20;;;;;;;4.78;1.30;;;;;;;8.76;78.56;100289.75;5095481;27;96629;-34
2022/04/06 04:59:46;;;;;;;3.40;0.90;;;;;;;8.67;77.90;100269.59;5095152;27;116953;-34
2022/04/06 05:02:11;;;;;;;1.27;0.80;;;;;;;8.76;78.29;100289.75;5094853;27;99228;-34
2022/04/06 05:04:45;;;;;;;3.53;0.85;;;;;;;8.73;78.58;100281.00;5094886;27;103899;-34
2022/04/06 05:07:11;;;;;;;2.85;1.25;;;;;;;8.78;78.47;100278.88;5093911;27;101756;-34
2022/04/06 05:09:36;;;;;;;7.50;1.63;;;;;;;8.76;78.43;100283.50;5095069;27;96756;-34
2022/04/06 05:12:01;;;;;;;4.60;0.80;;;;;;;8.78;78.23;100281.56;5093441;27;126750;-34
2022/04/06 05:14:27;;;;;;;1.33;0.82;;;;;;;8.81;78.38;100276.84;5095367;27;97277;-34
2022/04/06 05:16:52;;;;;;;10.15;1.10;;;;;;;8.75;78.75;100266.44;5095133;27;96663;-34
2022/04/06 05:19:17;;;;;;;3.33;0.90;;;;;;;8.74;78.65;100264.69;5094283;27;109859;-34
2022/04/06 05:21:43;;;;;;;2.40;0.95;;;;;;;8.73;79.15;100268.38;5094229;27;113269;-34
2022/04/06 05:24:08;;;;;;;1.90;1.20;;;;;;;8.72;78.47;100263.91;5094147;27;119920;-34
2022/04/06 05:26:33;;;;;;;2.38;1.02;;;;;;;8.77;78.71;100269.91;5094149;27;108603;-34
2022/04/06 05:28:58;;;;;;;14.05;1.08;;;;;;;8.76;78.69;100273.56;5094127;27;122161;-34
2022/04/06 05:31:24;;;;;;;3.17;0.90;;;;;;;8.76;78.36;100264.59;5093827;27;105138;-34
2022/04/06 05:33:49;;;;;;;3.42;1.00;;;;;;;8.74;78.30;100253.03;5093883;27;97775;-34
2022/04/06 05:36:14;;;;;;;1.88;0.80;;;;;;;8.78;78.30;100268.06;5094511;27;96555;-34
2022/04/06 05:38:40;;;;;;;2.47;0.85;;;;;;;8.83;78.23;100268.66;5093668;27;122175;-34
2022/04/06 05:41:07;;;;;;;0.52;0.45;;;;;;;8.78;78.02;100260.84;5094592;27;97343;-34
2022/04/06 05:43:32;;;;;;;4.72;1.23;;;;;;;8.86;78.05;100280.09;5094436;27;97881;-34
2022/04/06 05:45:57;;;;;;;4.35;0.80;;;;;;;8.88;77.92;100296.22;5094393;27;96494;-34
2022/04/06 05:48:22;;;;;;;3.60;0.85;;;;;;;8.82;77.79;100281.28;5093713;27;123149;-34
2022/04/06 05:50:48;;;;;;;3.20;0.63;;;;;;;8.83;77.17;100277.59;5094277;27;97861;-34
2022/04/06 05:53:16;;;;;;;2.05;0.57;;;;;;;8.86;77.02;100276.53;5093308;27;121381;-34
2022/04/06 05:55:43;;;;;;;6.93;0.68;;;;;;;8.90;77.04;100276.25;5093670;27;100559;-34
2022/04/06 05:58:09;;;;;;;3.55;0.65;;;;;;;8.87;76.61;100271.06;5075635;27;96797;-34
2022/04/06 06:00:34;;;;;;;2.20;1.08;;;;;;;8.95;76.42;100272.41;5094163;27;97911;-34
2022/04/06 06:02:59;;;;;;;0.47;0.20;;;;;;;8.88;75.86;100267.38;5093071;27;126923;-34
2022/04/06 06:05:24;;;;;;;4.15;0.52;;;;;;;8.96;76.13;100274.13;5093694;27;96750;-34
2022/04/06 06:08:02;;;;;;;2.65;0.73;;;;;;;8.93;75.72;100267.09;5093613;27;111248;-34
2022/04/06 06:10:28;;;;;;;2.85;0.25;;;;;;;8.97;75.73;100275.88;5075336;27;98950;-34
2022/04/06 06:12:53;;;;;;;2.75;0.95;;;;;;;8.97;75.21;100273.16;5093856;27;99140;-34
2022/04/06 06:15:19;;;;;;;2.67;0.65;;;;;;;8.92;75.28;100260.81;5092976;27;121923;-34
2022/04/06 06:17:44;;;;;;;2.40;0.50;;;;;;;8.95;74.91;100259.75;5075229;27;96793;-34
2022/04/06 06:20:10;;;;;;;0.80;0.38;;;;;;;8.97;75.09;100263.22;5092552;27;121163;-34
2022/04/06 06:22:35;;;;;;;0.80;0.25;;;;;;;8.99;74.77;100253.19;5093984;27;97910;-34
2022/04/06 06:25:01;;;;;;;1.08;0.57;;;;;;;8.98;75.00;100258.69;5093289;27;107321;-34
2022/04/06 06:27:26;;;;;;;0.85;0.50;;;;;;;9.01;75.22;100251.28;5093492;27;96783;-34
2022/04/06 06:29:52;;;;;;;0.25;0.20;;;;;;;9.05;74.59;100251.91;5093793;27;96778;-34
2022/04/06 06:32:17;;;;;;;2.55;0.80;;;;;;;9.04;75.18;100248.34;5093578;27;97818;-34
2022/04/06 06:34:43;;;;;;;5.78;1.35;;;;;;;9.02;75.07;100242.19;5093618;27;96557;-34
2022/04/06 06:37:10;;;;;;;1.35;0.60;;;;;;;9.07;75.22;100242.75;5075482;27;96608;-34
2022/04/06 06:39:36;;;;;;;1.45;0.47;;;;;;;9.11;75.47;100248.84;5074863;27;100989;-34
2022/04/06 06:42:03;;;;;;;1.38;0.55;;;;;;;9.12;75.46;100248.72;5093552;27;97380;-34
2022/04/06 06:44:37;;;;;;;0.80;0.45;;;;;;;9.13;75.49;100236.09;5074338;27;98655;-34
2022/04/06 06:47:03;;;;;;;8.38;2.13;;;;;;;9.11;75.61;100232.63;5093558;27;96775;-34
2022/04/06 06:49:28;;;;;;;1.90;0.52;;;;;;;9.18;75.92;100243.91;5093538;27;97839;-34
2022/04/06 06:51:54;;;;;;;1.33;0.73;;;;;;;9.14;76.03;100251.31;5093331;27;97747;-34
2022/04/06 06:54:19;;;;;;;0.35;0.32;;;;;;;9.17;76.10;100237.59;5093256;27;96642;-34
2022/04/06 06:56:44;;;;;;;6.88;1.42;;;;;;;9.20;76.06;100234.72;5093386;27;96852;-34
2022/04/06 06:59:09;;;;;;;3.22;0.98;;;;;;;9.23;76.11;100245.31;5073931;27;119621;-34
2022/04/06 07:01:35;;;;;;;6.10;0.55;;;;;;;9.27;76.22;100241.47;5092582;27;126783;-34
2022/04/06 07:04:00;;;;;;;4.28;0.95;;;;;;;9.26;76.49;100236.16;5092963;27;97981;-34
2022/04/06 07:06:25;;;;;;;3.75;1.13;;;;;;;9.29;76.69;100233.22;5092031;27;122624;-34
2022/04/06 07:08:53;;;;;;;6.55;0.90;;;;;;;9.23;77.79;100229.09;5092546;27;98772;-34
2022/04/06 07:11:18;;;;;;;5.22;0.88;;;;;;;9.17;77.59;100223.22;5074224;27;97844;-34
2022/04/06 07:13:43;;;;;;;4.93;1.17;;;;;;;9.20;78.36;100225.72;5093303;27;97596;-34
2022/04/06 07:16:10;;;;;;;3.85;0.85;;;;;;;9.17;77.86;100237.59;5093189;27;96733;-34
2022/04/06 07:18:36;;;;;;;9.57;1.00;;;;;;;9.16;78.31;100235.03;5093059;27;97993;-34
2022/04/06 07:21:02;;;;;;;3.60;0.30;;;;;;;9.12;78.53;100235.19;5092802;27;99249;-34
2022/04/06 07:23:28;;;;;;;1.60;0.57;;;;;;;9.06;78.73;100223.97;5093218;27;96599;-34
2022/04/06 07:25:53;;;;;;;1.90;0.60;;;;;;;9.02;78.98;100220.56;5093428;27;96742;-34
2022/04/06 07:28:18;;;;;;;1.42;0.90;;;;;;;9.07;78.88;100225.69;5091788;27;126482;-34
2022/04/06 07:30:43;;;;;;;9.73;1.00;;;;;;;9.04;79.12;100228.59;5092859;27;97282;-34
2022/04/06 07:33:09;;;;;;;4.85;0.95;;;;;;;9.08;78.82;100228.28;5073713;27;98370;-34
2022/04/06 07:35:37;;;;;;;3.10;0.82;;;;;;;9.04;79.92;100217.78;5092884;27;96725;-34
2022/04/06 07:38:02;;;;;;;0.98;0.47;;;;;;;9.06;79.83;100219.41;5073988;27;100818;-34
2022/04/06 07:40:27;;;;;;;7.20;0.85;;;;;;;9.06;79.94;100230.22;5074104;27;98862;-34
2022/04/06 07:42:53;;;;;;;6.75;0.50;;;;;;;9.00;80.72;100222.50;5092053;27;117952;-34
2022/04/06 07:45:20;;;;;;;0.95;0.65;;;;;;;9.01;81.27;100220.66;5092796;27;96795;-34
2022/04/06 07:47:50;;;;;;;2.97;0.70;;;;;;;9.00;81.12;100211.69;5074110;27;100956;-34
2022/04/06 07:50:17;;;;;;;1.27;0.70;;;;;;;8.95;80.60;100207.56;5074269;27;100210;-34
2022/04/06 07:52:43;;;;;;;3.95;0.68;;;;;;;8.88;81.87;100207.97;5092380;27;98400;-34
2022/04/06 07:55:10;;;;;;;10.38;1.65;;;;;;;8.87;81.60;100202.69;5074139;27;96836;-34
2022/04/06 07:57:37;;;;;;;6.07;0.88;;;;;;;8.91;81.80;100210.47;5075952;27;101493;-34
2022/04/06 08:00:10;;;;;;;2.88;0.65;;;;;;;8.89;81.87;100200.72;5077297;27;100743;-34
2022/04/06 08:02:36;;;;;;;10.52;0.60;;;;;;;8.88;83.44;100197.16;5096295;27;96689;-34
2022/04/06 08:05:04;;;;;;;2.33;0.60;;;;;;;8.92;82.72;100211.34;5077340;27;96839;-34
2022/04/06 08:07:30;;;;;;;2.08;0.52;;;;;;;8.86;83.41;100185.59;5077151;27;100833;-34
2022/04/06 08:09:55;;;;;;;2.42;0.52;;;;;;;8.90;82.34;100197.94;5095919;27;97862;-34
2022/04/06 08:12:20;;;;;;;3.78;1.77;;;;;;;8.85;82.86;100180.31;5094220;27;123425;-34
2022/04/06 08:14:48;;;;;;;3.80;1.23;;;;;;;8.89;82.74;100188.09;5096094;27;97474;-34
2022/04/06 08:17:14;;;;;;;6.00;0.88;;;;;;;8.92;82.38;100195.13;5095650;27;98708;-34
2022/04/06 08:19:40;;;;;;;12.25;1.15;;;;;;;8.91;82.76;100187.97;5077150;27;101186;-33
2022/04/06 08:22:05;;;;;;;4.97;1.60;;;;;;;8.85;82.42;100180.31;5095329;27;97685;-34
2022/04/06 08:24:30;;;;;;;5.03;1.27;;;;;;;8.89;83.12;100189.91;5077230;27;96911;-34
2022/04/06 08:26:56;;;;;;;8.25;1.45;;;;;;;8.93;82.50;100188.75;5094490;27;126503;-34
2022/04/06 08:29:21;;;;;;;7.88;1.13;;;;;;;8.95;82.54;100199.47;5076262;27;118896;-34
2022/04/06 08:31:46;;;;;;;4.53;1.10;;;;;;;8.92;82.74;100195.13;5095861;27;96457;-34
2022/04/06 08:34:12;;;;;;;6.57;1.52;;;;;;;8.95;82.81;100196.78;5095591;27;96779;-34
2022/04/06 08:36:39;;;;;;;2.28;0.70;;;;;;;8.89;83.38;100182.72;5095628;27;97967;-34
2022/04/06 08:39:05;;;;;;;3.85;1.30;;;;;;;8.90;83.97;100195.22;5077247;27;101020;-34
2022/04/06 08:41:31;;;;;;;5.50;1.13;;;;;;;8.88;83.58;100193.59;5095465;27;96587;-34
2022/04/06 08:43:56;;;;;;;4.18;1.13;;;;;;;8.85;84.95;100178.47;5095343;27;96948;-34
2022/04/06 08:46:22;;;;;;;2.85;1.05;;;;;;;8.82;85.03;100186.78;5094941;27;97899;-34
2022/04/06 08:48:48;;;;;;;5.53;1.13;;;;;;;8.88;84.22;100190.91;5095446;27;97332;-34
2022/04/06 08:51:16;;;;;;;1.55;0.95;;;;;;;8.82;85.93;100185.88;5095345;27;96445;-34
2022/04/06 08:53:42;;;;;;;5.55;1.40;;;;;;;8.80;86.79;100191.41;5076562;27;96772;-34
2022/04/06 08:56:08;;;;;;;3.35;1.13;;;;;;;8.76;85.43;100176.34;5095084;27;97574;-33
2022/04/06 08:58:45;;;;;;;6.43;1.30;;;;;;;8.81;85.95;100185.03;5076461;27;100636;-34
2022/04/06 09:01:11;;;;;;;3.50;1.48;;;;;;;8.82;85.29;100194.88;5094610;27;112840;-33
2022/04/06 09:03:36;;;;;;;2.22;1.38;;;;;;;8.72;85.90;100174.81;5095623;27;98882;-33
2022/04/06 09:06:04;;;;;;;2.13;1.40;;;;;;;8.75;85.94;100174.63;5094480;27;99267;-34
2022/04/06 09:08:40;;;;;;;4.00;1.00;;;;;;;8.83;86.33;100183.09;5093641;27;98109;-34
2022/04/06 09:11:12;;;;;;;1.65;1.17;;;;;;;8.81;85.98;100174.22;5075470;27;96958;-33
2022/04/06 09:13:41;;;;;;;2.30;1.08;;;;;;;8.87;85.75;100187.34;5076430;27;96956;-33
2022/04/06 09:16:11;;;;;;;3.00;1.42;;;;;;;8.84;85.97;100171.34;5094681;27;97878;-33
2022/04/06 09:18:43;;;;;;;7.50;2.25;;;;;;;8.84;85.88;100167.75;5094528;27;99016;-33
2022/04/06 09:21:09;;;;;;;5.47;1.67;;;;;;;8.88;86.60;100183.66;5076425;27;96840;-33
2022/04/06 09:23:35;;;;;;;2.05;1.42;;;;;;;8.90;86.16;100175.47;5076160;27;96815;-34
2022/04/06 09:26:06;;;;;;;11.32;2.58;;;;;;;8.85;86.65;100164.09;5075775;27;101289;-34
2022/04/06 09:28:32;;;;;;;3.78;1.58;;;;;;;8.86;87.64;100172.06;5076399;27;100904;-34
2022/04/06 09:30:58;;;;;;;8.07;2.10;;;;;;;8.99;86.48;100176.69;5076021;27;96678;-33
2022/04/06 09:33:28;;;;;;;2.72;1.45;;;;;;;9.01;86.59;100164.81;5074791;27;96836;-34
2022/04/06 09:35:55;;;;;;;7.47;1.90;;;;;;;9.10;86.10;100169.59;5071524;27;100857;-33
2022/04/06 09:38:31;;;;;;;6.38;1.70;;;;;;;9.11;86.50;100170.47;5073812;27;99194;-33
2022/04/06 09:41:02;;;;;;;2.58;1.35;;;;;;;9.21;86.89;100166.19;5074372;27;96567;-33
2022/04/06 09:43:30;;;;;;;2.53;1.75;;;;;;;9.26;86.12;100166.75;5072543;27;96818;-34
2022/04/06 09:48:54;;;;;;;9.27;2.67;;;;;;;9.30;85.62;100159.31;5074089;27;97032;-33
2022/04/06 09:51:21;;;;;;;1.33;1.15;;;;;;;9.33;85.97;100159.09;5038675;27;96619;-33
2022/04/06 09:53:49;;;;;;;4.50;1.38;;;;;;;9.45;86.08;100168.22;5055481;27;96786;-34
2022/04/06 09:56:19;;;;;;;4.10;1.98;;;;;;;9.42;85.69;100160.31;5073433;27;100178;-33
2022/04/06 09:58:45;;;;;;;4.78;2.22;;;;;;;9.49;85.92;100159.78;5054941;27;101035;-33
2022/04/06 10:01:13;;;;;;;2.08;1.35;;;;;;;9.52;85.69;100150.59;5071829;27;97166;-33
2022/04/06 10:03:42;;;;;;;4.18;1.73;;;;;;;9.49;85.91;100159.78;5055062;27;96845;-33
2022/04/06 10:06:09;;;;;;;2.53;1.65;;;;;;;9.54;85.63;100168.44;5054559;27;100894;-33
2022/04/06 10:08:34;;;;;;;3.42;1.30;;;;;;;9.61;85.32;100158.09;5054997;27;100821;-33
2022/04/06 10:11:00;;;;;;;8.32;1.58;;;;;;;9.60;85.07;100142.81;5073272;27;96645;-34
2022/04/06 10:13:27;;;;;;;4.28;1.73;;;;;;;9.67;84.71;100156.78;5073275;27;96686;-34
2022/04/06 10:15:54;;;;;;;5.55;1.80;;;;;;;9.74;84.99;100137.31;5054811;27;100762;-33
2022/04/06 10:18:19;;;;;;;6.80;1.38;;;;;;;9.82;84.38;100133.22;5055204;27;100904;-34
2022/04/06 10:20:58;;;;;;;6.07;1.48;;;;;;;9.88;84.55;100127.38;5072474;27;108392;-33
2022/04/06 10:24:01;;;;;;;1.60;1.05;;;;;;;9.98;84.03;100136.56;5073442;27;97911;-33
2022/04/06 10:26:36;;;;;;;3.08;1.95;;;;;;;10.02;84.16;100132.69;5072839;27;97983;-33
2022/04/06 10:29:04;;;;;;;3.00;1.38;;;;;;;9.96;83.72;100135.81;5054680;27;100804;-33
2022/04/06 10:31:30;;;;;;;2.33;1.40;;;;;;;9.99;83.92;100132.91;5054637;27;96703;-33
2022/04/06 10:34:17;;;;;;;4.25;1.40;;;;;;;10.05;83.85;100129.75;5072977;27;96819;-34
2022/04/06 10:36:44;;;;;;;1.58;0.82;;;;;;;10.02;83.85;100113.75;5073090;27;97496;-33
2022/04/06 10:39:09;;;;;;;5.22;1.27;;;;;;;10.10;83.42;100116.75;5054545;27;101155;-33
2022/04/06 10:41:42;;;;;;;3.17;1.23;;;;;;;10.17;83.20;100111.78;5072958;27;96619;-34
2022/04/06 10:44:29;;;;;;;;;;;;;;;10.21;83.20;100113.28;5073733;27;96647;-33
2022/04/06 10:47:06;;;;;;;2.45;1.38;;;;;;;10.24;82.73;100095.97;5072271;27;99410;-34
2022/04/06 10:49:31;;;;;;;4.22;1.65;;;;;;;10.33;82.48;100101.59;5054398;27;101087;-33
2022/04/06 10:51:58;;;;;;;3.35;1.20;;;;;;;10.39;82.49;100100.28;5071180;27;123028;-33
2022/04/06 10:54:27;;;;;;;4.18;1.80;;;;;;;10.42;82.33;100100.09;5072933;27;96792;-34
2022/04/06 10:56:54;;;;;;;1.90;1.30;;;;;;;10.40;82.76;100080.38;5054032;27;101127;-34
2022/04/06 10:59:29;;;;;;;4.38;1.40;;;;;;;10.41;82.35;100092.91;5072464;27;99390;-34
2022/04/06 11:02:25;;;;;;;2.13;1.30;;;;;;;10.47;82.42;100080.81;5073226;27;96478;-34
2022/04/06 11:04:51;;;;;;;5.05;1.27;;;;;;;10.40;82.25;100075.81;5052633;27;96829;-34
2022/04/06 11:10:25;;;;;;;2.08;1.20;;;;;;;10.45;82.58;100083.59;5084199;27;97077;-34
2022/04/06 11:13:08;;;;;;;5.97;1.92;;;;;;;10.39;82.74;100079.53;5092912;27;96520;-33
2022/04/06 11:15:41;;;;;;;1.58;1.10;;;;;;;10.34;82.49;100078.09;5074574;27;96820;-34
2022/04/06 11:18:45;;;;;;;6.13;1.73;;;;;;;10.35;82.47;100074.44;5092604;27;98140;-33
2022/04/06 11:21:13;;;;;;;5.10;1.67;;;;;;;10.32;82.69;100078.25;5074322;27;100867;-34
2022/04/06 11:23:38;;;;;;;4.90;1.67;;;;;;;10.20;82.32;100063.72;5074512;27;96652;-34
2022/04/06 11:26:04;;;;;;;3.63;1.63;;;;;;;10.24;83.01;100061.63;5092207;27;105722;-34
2022/04/06 11:28:29;;;;;;;3.38;1.48;;;;;;;10.28;82.87;100059.59;5092798;27;99344;-34
2022/04/06 11:30:54;;;;;;;5.32;1.45;;;;;;;10.28;82.97;100065.00;5092737;27;108206;-34
2022/04/06 11:33:20;;;;;;;1.58;1.05;;;;;;;10.26;82.81;100058.84;5095750;27;120631;-34
2022/04/06 11:35:45;;;;;;;1.48;0.90;;;;;;;10.30;82.83;100057.69;5096760;27;96908;-33
2022/04/06 11:38:10;;;;;;;3.92;1.70;;;;;;;10.26;82.58;100061.53;5095880;27;109117;-34